createdAt,value
2023-05-20T00:02:05.157Z,8.60
2023-05-20T00:05:08.169Z,8.87
2023-05-20T00:08:11.252Z,8.20
2023-05-20T00:11:13.640Z,9.23
2023-05-20T00:14:16.038Z,10.60
2023-05-20T00:17:18.494Z,10.60
2023-05-20T00:20:21.028Z,10.00
2023-05-20T00:23:23.414Z,8.88
2023-05-20T00:26:26.728Z,8.75
2023-05-20T00:29:31.315Z,9.05
2023-05-20T00:32:34.263Z,9.57
2023-05-20T00:35:36.869Z,8.17
2023-05-20T00:38:39.306Z,9.13
2023-05-20T00:41:41.866Z,8.35
2023-05-20T00:44:44.368Z,8.10
2023-05-20T00:47:46.874Z,8.15
2023-05-20T00:50:50.002Z,8.57
2023-05-20T00:53:52.713Z,8.15
2023-05-20T00:56:56.439Z,8.70
2023-05-20T00:59:58.980Z,8.05
2023-05-20T01:03:01.533Z,8.67
2023-05-20T01:06:04.109Z,8.50
2023-05-20T01:09:06.890Z,8.88
2023-05-20T01:12:13.663Z,9.60
2023-05-20T01:15:16.620Z,8.73
2023-05-20T01:18:18.995Z,8.67
2023-05-20T01:21:22.247Z,8.87
2023-05-20T01:24:24.949Z,8.60
2023-05-20T01:27:30.412Z,9.05
2023-05-20T01:30:35.691Z,9.07
2023-05-20T01:33:38.115Z,9.35
2023-05-20T01:36:40.560Z,9.07
2023-05-20T01:39:43.006Z,8.65
2023-05-20T01:42:46.137Z,8.80
2023-05-20T01:45:48.938Z,9.00
2023-05-20T01:48:51.442Z,9.57
2023-05-20T01:51:53.862Z,10.00
2023-05-20T01:54:56.304Z,9.95
2023-05-20T01:57:58.776Z,9.10
2023-05-20T02:01:01.759Z,10.10
2023-05-20T02:04:04.307Z,9.02
2023-05-20T02:07:06.771Z,9.77
2023-05-20T02:10:09.580Z,9.30
2023-05-20T02:13:12.385Z,9.18
2023-05-20T02:16:15.621Z,8.60
2023-05-20T02:19:23.960Z,9.77
2023-05-20T02:22:26.661Z,8.67
2023-05-20T02:25:29.070Z,9.10
2023-05-20T02:28:31.468Z,8.82
2023-05-20T02:31:33.853Z,9.40
2023-05-20T02:34:38.796Z,8.47
2023-05-20T02:37:41.283Z,9.13
2023-05-20T02:40:45.425Z,9.70
2023-05-20T02:43:47.894Z,8.55
2023-05-20T02:46:50.314Z,8.93
2023-05-20T02:49:52.960Z,8.48
2023-05-20T02:52:55.959Z,8.10
2023-05-20T02:55:58.339Z,8.63
2023-05-20T02:59:00.768Z,8.82
2023-05-20T03:02:03.334Z,8.52
2023-05-20T03:05:06.147Z,8.77
2023-05-20T03:08:12.360Z,8.47
2023-05-20T03:11:14.781Z,9.23
2023-05-20T03:14:17.329Z,8.23
2023-05-20T03:17:19.875Z,8.50
2023-05-20T03:20:22.281Z,8.75
2023-05-20T03:23:24.748Z,8.40
2023-05-20T03:26:28.192Z,8.07
2023-05-20T03:29:31.469Z,8.52
2023-05-20T03:32:34.186Z,8.48
2023-05-20T03:35:36.867Z,8.65
2023-05-20T03:38:39.989Z,8.17
2023-05-20T03:41:42.501Z,8.93
2023-05-20T03:44:45.723Z,8.45
2023-05-20T03:47:49.023Z,9.60
2023-05-20T03:50:53.205Z,10.18
2023-05-20T03:53:55.917Z,10.17
2023-05-20T03:56:58.413Z,9.32
2023-05-20T04:00:02.346Z,9.73
2023-05-20T04:03:07.783Z,10.23
2023-05-20T04:06:11.301Z,10.65
2023-05-20T04:09:13.795Z,11.20
2023-05-20T04:12:16.229Z,12.00
2023-05-20T04:15:19.620Z,10.18
2023-05-20T04:18:30.002Z,10.10
2023-05-20T04:21:32.566Z,10.48
2023-05-20T04:24:35.057Z,11.33
2023-05-20T04:27:40.397Z,11.20
2023-05-20T04:30:45.437Z,11.30
2023-05-20T04:33:48.729Z,13.63
2023-05-20T04:36:52.451Z,13.63
2023-05-20T04:39:54.993Z,13.03
2023-05-20T04:42:58.615Z,13.93
2023-05-20T04:46:06.248Z,13.65
2023-05-20T04:49:09.392Z,13.68
2023-05-20T04:52:11.814Z,13.30
2023-05-20T04:55:16.034Z,14.93
2023-05-20T04:58:18.597Z,14.45
2023-05-20T05:01:21.200Z,15.32
2023-05-20T05:04:23.765Z,15.20
2023-05-20T05:07:26.259Z,15.00
2023-05-20T05:10:28.745Z,14.07
2023-05-20T05:13:31.407Z,15.07
2023-05-20T05:16:34.019Z,14.68
2023-05-20T05:19:36.518Z,15.20
2023-05-20T05:22:41.370Z,16.75
2023-05-20T05:25:43.833Z,14.93
2023-05-20T05:28:46.230Z,14.23
2023-05-20T05:31:49.073Z,14.43
2023-05-20T05:34:52.111Z,13.02
2023-05-20T05:37:55.061Z,15.13
2023-05-20T05:40:57.710Z,16.70
2023-05-20T05:44:00.530Z,17.02
2023-05-20T05:47:04.057Z,17.98
2023-05-20T05:50:07.322Z,17.73
2023-05-20T05:53:10.796Z,17.80
2023-05-20T05:56:15.498Z,16.60
2023-05-20T05:59:19.238Z,17.10
2023-05-20T06:02:22.632Z,17.42
2023-05-20T06:05:27.489Z,15.73
2023-05-20T06:08:31.385Z,15.27
2023-05-20T06:11:34.405Z,15.13
2023-05-20T06:14:36.813Z,14.77
2023-05-20T06:17:40.300Z,14.82
2023-05-20T06:20:43.713Z,14.10
2023-05-20T06:23:46.666Z,12.68
2023-05-20T06:26:50.647Z,11.80
2023-05-20T06:29:53.105Z,13.10
2023-05-20T06:32:55.578Z,10.98
2023-05-20T06:35:58.496Z,10.32
2023-05-20T06:39:01.221Z,9.80
2023-05-20T06:42:03.868Z,11.40
2023-05-20T06:45:11.665Z,10.43
2023-05-20T06:48:19.393Z,9.93
2023-05-20T06:51:22.176Z,9.25
2023-05-20T06:54:25.693Z,9.93
2023-05-20T06:57:28.108Z,10.40
2023-05-20T07:00:31.198Z,10.63
2023-05-20T07:03:33.689Z,10.80
2023-05-20T07:06:36.346Z,8.73
2023-05-20T07:09:38.752Z,6.18
2023-05-20T07:12:42.873Z,6.43
2023-05-20T07:15:48.382Z,6.50
2023-05-20T07:18:51.899Z,6.63
2023-05-20T07:21:54.410Z,6.93
2023-05-20T07:25:11.807Z,7.07
2023-05-20T07:28:16.147Z,6.73
2023-05-20T07:31:20.101Z,6.90
2023-05-20T07:34:23.762Z,6.20
2023-05-20T07:37:27.072Z,6.13
2023-05-20T07:40:29.900Z,7.05
2023-05-20T07:43:32.269Z,7.50
2023-05-20T07:46:35.178Z,8.57
2023-05-20T07:49:39.208Z,8.27
2023-05-20T07:52:55.440Z,7.43
2023-05-20T07:56:00.981Z,7.80
2023-05-20T07:59:05.010Z,8.37
2023-05-20T08:02:13.579Z,8.65
2023-05-20T08:05:16.980Z,7.53
2023-05-20T08:08:20.461Z,7.82
2023-05-20T08:11:29.082Z,8.02
2023-05-20T08:14:32.125Z,7.60
2023-05-20T08:17:35.410Z,7.63
2023-05-20T08:20:38.766Z,8.02
2023-05-20T08:23:41.452Z,7.60
2023-05-20T08:26:43.869Z,6.82
2023-05-20T08:29:46.447Z,7.10
2023-05-20T08:32:49.106Z,7.80
2023-05-20T08:35:51.610Z,8.10
2023-05-20T08:38:53.999Z,7.43
2023-05-20T08:41:56.432Z,7.10
2023-05-20T08:44:58.930Z,6.97
2023-05-20T08:48:03.199Z,7.32
2023-05-20T08:51:06.366Z,7.15
2023-05-20T08:54:09.049Z,6.50
2023-05-20T08:57:14.099Z,7.03
2023-05-20T09:00:17.248Z,6.50
2023-05-20T09:03:21.028Z,7.25
2023-05-20T09:06:24.220Z,6.47
2023-05-20T09:09:26.614Z,7.07
2023-05-20T09:12:28.986Z,7.32
2023-05-20T09:15:32.843Z,7.10
2023-05-20T09:18:39.177Z,6.65
2023-05-20T09:21:41.697Z,6.20
2023-05-20T09:24:44.118Z,7.13
2023-05-20T09:27:46.730Z,6.25
2023-05-20T09:30:50.474Z,6.43
2023-05-20T09:33:52.872Z,6.60
2023-05-20T09:36:55.270Z,6.18
2023-05-20T09:40:07.293Z,6.55
2023-05-20T09:43:11.550Z,6.97
2023-05-20T09:46:14.237Z,6.83
2023-05-20T09:49:16.729Z,6.72
2023-05-20T09:52:21.346Z,6.65
2023-05-20T09:55:24.799Z,7.60
2023-05-20T09:58:27.249Z,6.53
2023-05-20T10:01:29.662Z,5.87
2023-05-20T10:04:32.534Z,6.90
2023-05-20T10:07:49.802Z,6.65
2023-05-20T10:11:25.948Z,6.85
2023-05-20T10:14:31.325Z,6.80
2023-05-20T10:18:03.491Z,6.23
2023-05-20T10:21:15.607Z,6.40
2023-05-20T10:24:17.965Z,6.65
2023-05-20T10:27:20.372Z,6.88
2023-05-20T10:30:22.761Z,6.45
2023-05-20T10:33:28.773Z,6.33
2023-05-20T10:36:32.295Z,6.88
2023-05-20T10:39:34.779Z,6.78
2023-05-20T10:42:37.197Z,6.30
2023-05-20T10:45:49.978Z,6.20
2023-05-20T10:48:52.479Z,6.47
2023-05-20T10:51:55.696Z,6.80
2023-05-20T10:54:58.867Z,6.53
2023-05-20T10:58:01.229Z,6.93
2023-05-20T11:01:03.681Z,6.35
2023-05-20T11:04:06.623Z,6.63
2023-05-20T11:07:09.182Z,6.18
2023-05-20T11:10:11.952Z,6.63
2023-05-20T11:13:17.118Z,6.60
2023-05-20T11:16:21.296Z,6.38
2023-05-20T11:19:23.869Z,6.47
2023-05-20T11:22:26.376Z,6.80
2023-05-20T11:25:28.816Z,6.55
2023-05-20T11:28:33.266Z,6.45
2023-05-20T11:31:38.154Z,6.95
2023-05-20T11:34:40.781Z,6.40
2023-05-20T11:37:43.262Z,6.47
2023-05-20T11:40:51.242Z,7.22
2023-05-20T11:44:00.475Z,6.88
2023-05-20T11:47:03.721Z,6.60
2023-05-20T11:50:07.617Z,6.60
2023-05-20T11:53:11.642Z,7.38
2023-05-20T11:56:14.137Z,6.95
2023-05-20T11:59:16.578Z,6.57
2023-05-20T12:02:19.092Z,7.32
2023-05-20T12:05:21.686Z,7.40
2023-05-20T12:08:24.163Z,6.90
2023-05-20T12:11:26.517Z,7.53
2023-05-20T12:14:28.917Z,7.07
2023-05-20T12:17:34.865Z,6.88
2023-05-20T12:20:37.759Z,6.93
2023-05-20T12:23:40.422Z,6.90
2023-05-20T12:26:42.840Z,7.30
2023-05-20T12:29:45.210Z,7.15
2023-05-20T12:32:50.081Z,7.10
2023-05-20T12:35:52.485Z,7.23
2023-05-20T12:38:54.899Z,8.15
2023-05-20T12:41:57.353Z,6.80
2023-05-20T12:44:59.757Z,7.75
2023-05-20T12:48:02.232Z,7.75
2023-05-20T12:51:04.898Z,7.50
2023-05-20T12:54:07.312Z,6.65
2023-05-20T12:57:09.776Z,7.55
2023-05-20T13:00:12.790Z,7.28
2023-05-20T13:03:15.394Z,7.15
2023-05-20T13:06:17.857Z,7.10
2023-05-20T13:09:20.219Z,6.53
2023-05-20T13:12:22.593Z,6.85
2023-05-20T13:15:24.969Z,6.82
2023-05-20T13:18:27.330Z,7.07
2023-05-20T13:21:29.708Z,7.13
2023-05-20T13:24:32.089Z,6.78
2023-05-20T13:27:34.480Z,7.47
2023-05-20T13:30:37.085Z,6.47
2023-05-20T13:33:39.750Z,6.80
2023-05-20T13:36:42.247Z,6.87
2023-05-20T13:39:44.657Z,6.55
2023-05-20T13:42:47.059Z,6.80
2023-05-20T13:45:49.430Z,7.38
2023-05-20T13:48:51.807Z,7.32
2023-05-20T13:51:54.185Z,7.40
2023-05-20T13:54:56.560Z,6.72
2023-05-20T13:57:58.924Z,6.63
2023-05-20T14:01:01.318Z,6.68
2023-05-20T14:04:03.708Z,6.63
2023-05-20T14:07:07.734Z,6.90
2023-05-20T14:10:11.621Z,6.15
2023-05-20T14:13:14.053Z,6.47
2023-05-20T14:16:16.445Z,6.20
2023-05-20T14:19:18.911Z,6.82
2023-05-20T14:22:21.317Z,6.73
2023-05-20T14:25:23.710Z,6.38
2023-05-20T14:28:26.257Z,6.57
2023-05-20T14:31:28.679Z,7.50
2023-05-20T14:34:31.075Z,6.65
2023-05-20T14:37:33.467Z,6.90
2023-05-20T14:40:36.248Z,6.35
2023-05-20T14:43:39.044Z,7.00
2023-05-20T14:46:41.496Z,6.03
2023-05-20T14:49:44.679Z,6.65
2023-05-20T14:52:47.019Z,7.10
2023-05-20T14:55:49.416Z,6.65
2023-05-20T14:58:51.808Z,5.38
2023-05-20T15:01:54.326Z,6.10
2023-05-20T15:04:56.759Z,5.88
2023-05-20T15:07:59.167Z,5.83
2023-05-20T15:11:01.566Z,7.30
2023-05-20T15:14:03.970Z,6.60
2023-05-20T15:17:06.587Z,6.28
2023-05-20T15:20:10.007Z,6.47
2023-05-20T15:23:12.453Z,6.90
2023-05-20T15:26:14.795Z,6.15
2023-05-20T15:29:17.254Z,5.78
2023-05-20T15:32:20.125Z,6.10
2023-05-20T15:35:22.686Z,5.97
2023-05-20T15:38:25.145Z,6.57
2023-05-20T15:41:27.586Z,6.00
2023-05-20T15:44:30.085Z,6.85
2023-05-20T15:47:32.477Z,6.80
2023-05-20T15:50:36.309Z,6.35
2023-05-20T15:53:40.669Z,6.50
2023-05-20T15:56:43.213Z,7.25
2023-05-20T15:59:45.590Z,6.03
2023-05-20T16:02:48.144Z,6.90
2023-05-20T16:05:50.784Z,6.35
2023-05-20T16:08:53.201Z,7.27
2023-05-20T16:11:56.307Z,7.03
2023-05-20T16:14:58.676Z,7.00
2023-05-20T16:18:01.258Z,6.65
2023-05-20T16:21:07.335Z,7.30
2023-05-20T16:24:09.700Z,6.87
2023-05-20T16:27:12.189Z,6.70
2023-05-20T16:30:14.576Z,6.88
2023-05-20T16:33:17.577Z,7.07
2023-05-20T16:36:19.993Z,7.00
2023-05-20T16:39:22.444Z,7.17
2023-05-20T16:42:24.794Z,8.55
2023-05-20T16:45:27.276Z,7.57
2023-05-20T16:48:29.679Z,7.43
2023-05-20T16:51:32.225Z,7.20
2023-05-20T16:54:37.303Z,7.57
2023-05-20T16:57:39.715Z,6.65
2023-05-20T17:00:42.116Z,6.82
2023-05-20T17:03:44.544Z,7.80
2023-05-20T17:06:49.857Z,7.30
2023-05-20T17:09:52.217Z,7.17
2023-05-20T17:12:54.719Z,7.30
2023-05-20T17:15:57.101Z,6.97
2023-05-20T17:18:59.567Z,6.97
2023-05-20T17:22:02.113Z,7.50
2023-05-20T17:25:04.904Z,6.80
2023-05-20T17:28:07.281Z,7.35
2023-05-20T17:31:09.910Z,7.05
2023-05-20T17:34:12.497Z,8.30
2023-05-20T17:37:15.147Z,7.90
2023-05-20T17:40:17.604Z,8.27
2023-05-20T17:43:20.950Z,8.10
2023-05-20T17:46:23.441Z,7.50
2023-05-20T17:49:25.937Z,7.88
2023-05-20T17:52:28.642Z,7.90
2023-05-20T17:55:32.608Z,8.10
2023-05-20T17:58:34.985Z,8.25
2023-05-20T18:01:37.533Z,8.32
2023-05-20T18:04:40.038Z,8.15
2023-05-20T18:07:43.028Z,8.30
2023-05-20T18:10:45.539Z,8.10
2023-05-20T18:13:47.981Z,8.35
2023-05-20T18:16:50.348Z,8.00
2023-05-20T18:19:52.737Z,7.57
2023-05-20T18:22:58.531Z,8.07
2023-05-20T18:26:01.111Z,7.67
2023-05-20T18:29:03.572Z,7.97
2023-05-20T18:32:06.654Z,7.40
2023-05-20T18:35:09.289Z,7.68
2023-05-20T18:38:11.717Z,7.70
2023-05-20T18:41:14.123Z,8.43
2023-05-20T18:44:16.920Z,7.78
2023-05-20T18:47:19.352Z,8.32
2023-05-20T18:50:21.758Z,7.70
2023-05-20T18:53:24.194Z,8.38
2023-05-20T18:56:27.325Z,8.17
2023-05-20T18:59:29.702Z,8.07
2023-05-20T19:02:32.123Z,7.80
2023-05-20T19:05:34.873Z,7.63
2023-05-20T19:08:37.573Z,8.10
2023-05-20T19:11:40.028Z,8.23
2023-05-20T19:14:42.430Z,8.25
2023-05-20T19:17:44.818Z,8.25
2023-05-20T19:20:47.204Z,7.63
2023-05-20T19:23:49.930Z,6.80
2023-05-20T19:26:52.337Z,6.83
2023-05-20T19:29:54.718Z,6.13
2023-05-20T19:32:57.140Z,5.57
2023-05-20T19:35:59.587Z,5.93
2023-05-20T19:39:01.961Z,5.30
2023-05-20T19:42:04.553Z,5.57
2023-05-20T19:45:07.515Z,5.22
2023-05-20T19:48:10.009Z,5.93
2023-05-20T19:51:12.435Z,6.38
2023-05-20T19:54:14.877Z,5.80
2023-05-20T19:57:17.259Z,5.87
2023-05-20T20:00:20.950Z,5.35
2023-05-20T20:03:23.238Z,5.68
2023-05-20T20:06:25.622Z,5.18
2023-05-20T20:09:28.100Z,5.55
2023-05-20T20:12:30.537Z,5.30
2023-05-20T20:15:33.123Z,4.68
2023-05-20T20:18:35.687Z,5.63
2023-05-20T20:21:40.265Z,5.15
2023-05-20T20:24:42.634Z,5.60
2023-05-20T20:27:45.040Z,5.87
2023-05-20T20:30:47.444Z,5.85
2023-05-20T20:33:50.711Z,5.68
2023-05-20T20:36:54.159Z,5.75
2023-05-20T20:39:56.707Z,5.70
2023-05-20T20:42:59.106Z,6.20
2023-05-20T20:46:01.516Z,6.05
2023-05-20T20:49:03.875Z,5.82
2023-05-20T20:52:06.738Z,5.25
2023-05-20T20:55:10.264Z,6.88
2023-05-20T20:58:13.578Z,5.57
2023-05-20T21:01:17.574Z,5.50
2023-05-20T21:04:20.971Z,5.57
2023-05-20T21:07:25.598Z,5.85
2023-05-20T21:10:29.308Z,5.57
2023-05-20T21:13:31.798Z,5.40
2023-05-20T21:16:34.217Z,5.70
2023-05-20T21:19:36.677Z,4.90
2023-05-20T21:22:39.304Z,5.43
2023-05-20T21:25:41.833Z,5.55
2023-05-20T21:28:44.178Z,4.83
2023-05-20T21:31:46.569Z,5.68
2023-05-20T21:34:48.934Z,5.22
2023-05-20T21:37:51.926Z,5.68
2023-05-20T21:40:54.335Z,5.07
2023-05-20T21:43:56.731Z,5.77
2023-05-20T21:46:59.250Z,5.70
2023-05-20T21:50:02.065Z,5.50
2023-05-20T21:53:04.443Z,5.70
2023-05-20T21:56:06.926Z,6.18
2023-05-20T21:59:09.357Z,5.37
2023-05-20T22:02:11.769Z,5.80
2023-05-20T22:05:14.163Z,6.13
2023-05-20T22:08:17.082Z,6.47
2023-05-20T22:11:19.927Z,5.60
2023-05-20T22:14:22.376Z,5.80
2023-05-20T22:17:25.009Z,5.43
2023-05-20T22:20:28.775Z,5.70
2023-05-20T22:23:31.137Z,6.10
2023-05-20T22:26:34.571Z,5.97
2023-05-20T22:29:37.082Z,5.27
2023-05-20T22:32:40.431Z,5.47
2023-05-20T22:35:42.835Z,6.00
2023-05-20T22:38:45.221Z,5.55
2023-05-20T22:41:47.587Z,6.75
2023-05-20T22:44:50.158Z,6.37
2023-05-20T22:47:53.113Z,6.05
2023-05-20T22:50:56.183Z,6.07
2023-05-20T22:53:58.583Z,5.97
2023-05-20T22:57:01.013Z,5.60
2023-05-20T23:00:04.995Z,6.30
2023-05-20T23:03:07.437Z,5.80
2023-05-20T23:06:09.918Z,5.88
2023-05-20T23:09:12.756Z,6.13
2023-05-20T23:12:15.686Z,6.22
2023-05-20T23:15:18.234Z,5.73
2023-05-20T23:18:20.743Z,5.82
2023-05-20T23:21:23.259Z,6.00
2023-05-20T23:24:25.633Z,5.68
2023-05-20T23:27:28.020Z,5.80
2023-05-20T23:30:30.498Z,5.97
2023-05-20T23:33:33.014Z,5.93
2023-05-20T23:36:35.509Z,6.18
2023-05-20T23:39:38.016Z,5.88
2023-05-20T23:42:40.429Z,5.50
2023-05-20T23:45:42.862Z,5.70
2023-05-20T23:48:45.907Z,6.10
2023-05-20T23:51:48.295Z,5.53
2023-05-20T23:54:51.682Z,6.13
2023-05-20T23:57:54.621Z,5.55
